Kaohsiung International Airport
RCKH : now visible

Airfield :











YOU CAN JOIN US ON...

 
LOGIN :

Register | Disclaimer

   EN    FR    IT 

 









Legend :    VFR   Marginal VFR   IFR   Intensive IFR   Very Intensive IFR
Visi :
Ceiling :
>= 8 km
>= 3000ft
5 to 8 km
1000 to 3000 ft
1500m to 5 km
500 to 1000 ft
800 to 1500m
200 to 500 ft
< 800m
< 200 ft
Symbols :   Thunderstorms  Fog  Heavy snow  Heavy precipitations  Wind > 20 kt






- Airport Elevation : 31 ft
- IATA code : KHH


RCKH - Kaohsiung International

CURRENT METAR :
  • 282225Z VRB02KT 9999 FEW012 BKN050 BKN070 26/25 Q1005 NOSIG RMK A2970

EXPIRED METARs :
  • 282200Z VRB02KT 8000 -RA FEW012 BKN050 BKN070 26/25 Q1005 NOSIG RMK A2969
  • 282100Z 05005KT 9999 -RA FEW012 BKN016 BKN060 26/25 Q1005 NOSIG RMK A2968 RA AMT 0.8MM
  • 282055Z 05005KT 9999 -RA FEW012 BKN016 BKN060 26/25 Q1005 NOSIG RMK A2968
  • 282000Z 02003KT 9999 FEW012 BKN016 BKN030 26/25 Q1004 NOSIG RMK A2967
  • 281900Z 31003KT 9999 FEW012 BKN016 BKN090 26/25 Q1004 NOSIG RMK A2967
  • 281800Z 32002KT 9999 FEW012 BKN016 BKN090 27/25 Q1004 NOSIG RMK A2967

TAF TAF RCKH
Valid from the 28 at 18:00 until the 30 at 00:00 UTC


281700Z 2818/2924 36005KT 9999 FEW015 BKN032
TEMPO 2818/2824 30005KT FEW010 BKN017 BKN040
BECMG 2900/2902 27005KT
TEMPO 2900/2906 FEW010 BKN017 BKN040
TEMPO 2904/2910 27010KT
BECMG 2911/2913 35005KT
RCAA FIR / Asia



MET'MAP, your aeronautical weather chart ! - Copyright ORBIFLY December 2007 - Disclaimer

ORBIFLY MET'MAP TEAM :

Programming & Development : Alexandra Zaïnal
Original concept : Baudouin d'Aumeries
Technical & hardware support : Manuel Goepfert
Assistance : Marc-Olivier Méhu




SOURCES & CREDITS :

   NOAA       Earth
Advisory